createdAt,value
2017-12-12T00:00:05.240Z,7.41
2017-12-12T00:02:36.939Z,7.48
2017-12-12T00:05:15.802Z,7.42
2017-12-12T00:07:49.382Z,7.42
2017-12-12T00:10:22.860Z,7.40
2017-12-12T00:12:56.895Z,7.46
2017-12-12T00:15:30.301Z,7.42
2017-12-12T00:18:03.323Z,7.40
2017-12-12T00:20:40.792Z,7.47
2017-12-12T00:23:13.766Z,7.49
2017-12-12T00:25:46.672Z,7.55
2017-12-12T00:28:19.328Z,7.63
2017-12-12T00:30:53.656Z,7.54
2017-12-12T00:33:25.155Z,7.59
2017-12-12T00:35:57.672Z,7.55
2017-12-12T00:38:30.259Z,7.53
2017-12-12T00:41:02.338Z,7.53
2017-12-12T00:43:33.960Z,7.50
2017-12-12T00:46:06.380Z,7.60
2017-12-12T00:48:39.057Z,7.53
2017-12-12T00:51:10.066Z,7.53
2017-12-12T00:53:41.416Z,7.51
2017-12-12T00:56:13.274Z,7.48
2017-12-12T00:58:45.010Z,7.52
2017-12-12T01:01:16.743Z,7.50
2017-12-12T01:03:48.742Z,7.46
2017-12-12T01:06:20.195Z,7.48
2017-12-12T01:08:51.684Z,7.50
2017-12-12T01:11:22.818Z,7.47
2017-12-12T01:13:54.435Z,7.51
2017-12-12T01:16:25.912Z,7.52
2017-12-12T01:18:57.425Z,7.53
2017-12-12T01:21:28.999Z,7.52
2017-12-12T01:24:00.739Z,7.58
2017-12-12T01:26:32.129Z,7.54
2017-12-12T01:29:03.479Z,7.51
2017-12-12T01:31:35.276Z,7.50
2017-12-12T01:34:08.989Z,7.46
2017-12-12T01:40:02.920Z,7.39
2017-12-12T01:42:34.923Z,7.39
2017-12-12T01:45:07.463Z,7.37
2017-12-12T01:47:39.042Z,7.31
2017-12-12T01:50:10.645Z,7.28
2017-12-12T01:52:41.880Z,7.29
2017-12-12T01:55:12.979Z,7.26
2017-12-12T01:57:43.992Z,7.21
2017-12-12T02:00:15.321Z,7.20
2017-12-12T02:02:46.638Z,7.16
2017-12-12T02:05:17.642Z,7.13
2017-12-12T02:07:49.146Z,7.09
2017-12-12T02:10:21.205Z,7.05
2017-12-12T02:12:52.161Z,7.11
2017-12-12T02:15:23.323Z,7.05
2017-12-12T02:17:54.249Z,7.07
2017-12-12T02:20:26.278Z,7.11
2017-12-12T02:22:57.513Z,7.00
2017-12-12T02:25:28.858Z,6.99
2017-12-12T02:28:00.765Z,7.07
2017-12-12T02:30:31.672Z,6.99
2017-12-12T02:33:03.027Z,7.02
2017-12-12T02:35:34.268Z,7.00
2017-12-12T02:38:05.249Z,6.94
2017-12-12T02:40:36.339Z,6.93
2017-12-12T02:43:07.848Z,7.03
2017-12-12T02:45:38.823Z,6.99
2017-12-12T02:48:09.916Z,6.96
2017-12-12T02:50:41.188Z,6.97
2017-12-12T02:53:13.813Z,7.00
2017-12-12T02:55:46.749Z,6.99
2017-12-12T02:58:18.456Z,7.01
2017-12-12T03:00:49.833Z,6.93
2017-12-12T03:03:20.772Z,6.97
2017-12-12T03:05:52.725Z,6.97
2017-12-12T03:08:23.895Z,6.88
2017-12-12T03:11:10.852Z,6.95
2017-12-12T03:13:43.322Z,6.91
2017-12-12T03:16:15.056Z,6.90
2017-12-12T03:18:46.458Z,6.93
2017-12-12T03:21:17.757Z,6.91
2017-12-12T03:23:48.781Z,6.90
2017-12-12T03:26:19.796Z,6.86
2017-12-12T03:28:51.035Z,6.86
2017-12-12T03:31:22.672Z,6.88
2017-12-12T03:33:54.211Z,6.94
2017-12-12T03:36:25.955Z,6.87
2017-12-12T03:38:57.505Z,6.79
2017-12-12T03:41:28.638Z,6.86
2017-12-12T03:44:00.266Z,6.80
2017-12-12T03:46:31.597Z,6.77
2017-12-12T03:49:03.774Z,6.69
2017-12-12T03:51:34.872Z,6.58
2017-12-12T03:54:05.904Z,6.57
2017-12-12T03:56:37.341Z,6.56
2017-12-12T03:59:08.287Z,6.47
2017-12-12T04:01:39.436Z,6.50
2017-12-12T04:04:10.890Z,6.58
2017-12-12T04:06:41.965Z,6.54
2017-12-12T04:09:13.149Z,6.43
2017-12-12T04:11:44.292Z,6.39
2017-12-12T04:14:15.291Z,6.35
2017-12-12T04:16:46.300Z,6.33
2017-12-12T04:19:17.250Z,6.32
2017-12-12T04:21:48.308Z,6.22
2017-12-12T04:24:21.501Z,6.04
2017-12-12T04:26:52.510Z,6.08
2017-12-12T04:29:25.693Z,6.05
2017-12-12T04:31:56.784Z,6.01
2017-12-12T04:34:28.019Z,6.00
2017-12-12T04:36:59.572Z,5.95
2017-12-12T04:39:30.599Z,5.96
2017-12-12T04:42:02.426Z,5.96
2017-12-12T04:44:34.544Z,5.95
2017-12-12T04:47:06.594Z,5.96
2017-12-12T04:49:38.855Z,5.93
2017-12-12T04:52:09.852Z,6.03
2017-12-12T04:54:42.377Z,5.94
2017-12-12T04:57:15.903Z,5.94
2017-12-12T04:59:47.416Z,5.99
2017-12-12T05:02:19.584Z,6.01
2017-12-12T05:04:50.806Z,6.10
2017-12-12T05:07:22.672Z,5.92
2017-12-12T05:09:58.048Z,5.99
2017-12-12T05:12:29.908Z,5.99
2017-12-12T05:15:06.867Z,5.90
2017-12-12T05:17:37.804Z,5.78
2017-12-12T05:20:12.570Z,5.63
2017-12-12T05:22:43.929Z,5.58
2017-12-12T05:25:22.739Z,5.46
2017-12-12T05:27:56.280Z,5.54
2017-12-12T05:30:29.284Z,5.31
2017-12-12T05:33:01.484Z,5.34
2017-12-12T05:35:36.515Z,5.31
2017-12-12T05:38:09.516Z,5.19
2017-12-12T05:40:45.086Z,5.10
2017-12-12T05:43:21.922Z,4.96
2017-12-12T05:45:58.272Z,4.99
2017-12-12T05:48:35.862Z,5.06
2017-12-12T05:51:29.594Z,4.95
2017-12-12T05:54:10.020Z,4.95
2017-12-12T05:56:45.999Z,4.82
2017-12-12T05:59:23.954Z,4.79
2017-12-12T06:02:03.910Z,4.59
2017-12-12T06:04:35.628Z,4.63
2017-12-12T06:07:06.956Z,4.51
2017-12-12T06:09:39.950Z,4.53
2017-12-12T06:12:13.322Z,4.41
2017-12-12T06:14:47.211Z,4.35
2017-12-12T06:17:18.104Z,4.30
2017-12-12T06:19:50.521Z,4.30
2017-12-12T06:24:57.915Z,4.16
2017-12-12T06:27:30.794Z,3.94
2017-12-12T06:30:05.427Z,3.70
2017-12-12T06:32:41.212Z,3.83
2017-12-12T06:35:12.727Z,3.80
2017-12-12T06:37:44.144Z,3.87
2017-12-12T06:40:16.217Z,3.71
2017-12-12T06:42:48.840Z,3.68
2017-12-12T06:45:20.738Z,3.81
2017-12-12T06:47:52.529Z,3.68
2017-12-12T06:50:24.291Z,3.75
2017-12-12T06:52:55.402Z,3.65
2017-12-12T06:55:29.068Z,3.57
2017-12-12T06:58:01.143Z,3.50
2017-12-12T07:00:33.244Z,3.69
2017-12-12T07:03:07.447Z,3.55
2017-12-12T07:05:42.479Z,3.74
2017-12-12T07:08:13.963Z,3.56
2017-12-12T07:10:45.280Z,3.66
2017-12-12T07:13:17.006Z,3.53
2017-12-12T07:15:50.224Z,3.44
2017-12-12T07:18:21.190Z,3.58
2017-12-12T07:20:53.986Z,3.53
2017-12-12T07:23:24.982Z,3.61
2017-12-12T07:25:57.427Z,3.68
2017-12-12T07:28:30.924Z,3.60
2017-12-12T07:31:03.935Z,3.51
2017-12-12T07:33:36.694Z,3.36
2017-12-12T07:36:08.249Z,3.46
2017-12-12T07:38:39.906Z,3.43
2017-12-12T07:41:10.937Z,3.50
2017-12-12T07:43:42.261Z,3.57
2017-12-12T07:46:13.459Z,3.40
2017-12-12T07:48:44.903Z,3.37
2017-12-12T07:51:17.261Z,3.58
2017-12-12T07:53:48.148Z,3.55
2017-12-12T07:56:19.658Z,3.58
2017-12-12T07:58:51.002Z,3.53
2017-12-12T08:01:22.564Z,3.46
2017-12-12T08:03:55.577Z,3.52
2017-12-12T08:06:26.913Z,3.53
2017-12-12T08:09:00.187Z,3.55
2017-12-12T08:11:31.266Z,3.61
2017-12-12T08:14:02.130Z,3.56
2017-12-12T08:16:34.514Z,3.58
2017-12-12T08:19:06.421Z,3.63
2017-12-12T08:21:38.221Z,3.66
2017-12-12T08:24:09.496Z,3.69
2017-12-12T08:26:41.848Z,3.70
2017-12-12T08:29:13.948Z,3.63
2017-12-12T08:31:45.907Z,3.70
2017-12-12T08:34:20.797Z,3.75
2017-12-12T08:36:53.149Z,3.77
2017-12-12T08:39:25.110Z,3.73
2017-12-12T08:41:58.246Z,3.70
2017-12-12T08:44:30.194Z,3.73
2017-12-12T08:47:04.990Z,3.79
2017-12-12T08:49:36.483Z,3.71
2017-12-12T08:52:09.251Z,3.76
2017-12-12T08:54:41.391Z,3.77
2017-12-12T08:57:13.715Z,3.62
2017-12-12T08:59:45.157Z,3.61
2017-12-12T09:02:17.897Z,3.61
2017-12-12T09:04:49.026Z,3.46
2017-12-12T09:07:20.296Z,3.54
2017-12-12T09:09:51.278Z,3.51
2017-12-12T09:12:22.609Z,3.56
2017-12-12T09:14:56.660Z,3.57
2017-12-12T09:17:27.920Z,3.62
2017-12-12T09:20:01.402Z,3.62
2017-12-12T09:22:32.599Z,3.48
2017-12-12T09:25:04.341Z,3.55
2017-12-12T09:27:36.088Z,3.59
2017-12-12T09:30:07.586Z,3.49
2017-12-12T09:32:39.861Z,3.46
2017-12-12T09:35:12.155Z,3.50
2017-12-12T09:37:43.458Z,3.57
2017-12-12T09:40:14.666Z,3.43
2017-12-12T09:42:45.730Z,3.50
2017-12-12T09:45:16.729Z,3.50
2017-12-12T09:47:48.220Z,3.55
2017-12-12T09:50:19.308Z,3.46
2017-12-12T09:52:50.206Z,3.51
2017-12-12T09:55:21.542Z,3.54
2017-12-12T09:57:53.539Z,3.48
2017-12-12T10:00:24.907Z,3.50
2017-12-12T10:02:56.052Z,3.52
2017-12-12T10:05:29.362Z,3.54
2017-12-12T10:08:04.166Z,3.61
2017-12-12T10:10:35.228Z,3.70
2017-12-12T10:13:07.457Z,3.84
2017-12-12T10:15:38.508Z,3.70
2017-12-12T10:18:10.637Z,3.90
2017-12-12T10:20:41.866Z,3.81
2017-12-12T10:23:16.350Z,3.85
2017-12-12T10:25:47.487Z,4.03
2017-12-12T10:28:20.093Z,4.09
2017-12-12T10:30:51.112Z,3.92
2017-12-12T10:33:22.444Z,4.02
2017-12-12T10:35:53.583Z,4.09
2017-12-12T10:38:24.670Z,4.16
2017-12-12T10:40:57.581Z,4.17
2017-12-12T10:43:29.195Z,4.10
2017-12-12T10:46:01.097Z,3.98
2017-12-12T10:48:32.887Z,4.10
2017-12-12T10:51:04.740Z,4.14
2017-12-12T10:53:35.821Z,4.04
2017-12-12T10:56:07.004Z,4.15
2017-12-12T10:58:38.342Z,4.16
2017-12-12T11:01:09.994Z,4.23
2017-12-12T11:03:41.930Z,4.09
2017-12-12T11:06:14.605Z,4.31
2017-12-12T11:08:46.332Z,4.11
2017-12-12T11:11:18.109Z,3.96
2017-12-12T11:13:49.154Z,3.89
2017-12-12T11:16:21.048Z,3.89
2017-12-12T11:18:53.362Z,3.72
2017-12-12T11:21:25.392Z,3.87
2017-12-12T11:24:03.296Z,3.72
2017-12-12T11:26:35.946Z,3.74
2017-12-12T11:29:08.239Z,3.71
2017-12-12T11:31:40.210Z,3.78
2017-12-12T11:34:11.506Z,3.98
2017-12-12T11:36:43.990Z,3.92
2017-12-12T11:39:15.794Z,3.95
2017-12-12T11:41:47.351Z,3.94
2017-12-12T11:44:19.328Z,3.82
2017-12-12T11:46:50.825Z,3.81
2017-12-12T11:49:22.653Z,3.79
2017-12-12T11:51:55.224Z,3.83
2017-12-12T11:54:26.789Z,3.90
2017-12-12T11:56:59.243Z,3.90
2017-12-12T11:59:31.844Z,3.92
2017-12-12T12:02:05.302Z,3.98
2017-12-12T12:04:38.057Z,3.97
2017-12-12T12:07:09.799Z,3.98
2017-12-12T12:09:41.056Z,4.08
2017-12-12T12:12:12.859Z,4.00
2017-12-12T12:14:43.804Z,3.96
2017-12-12T12:17:14.984Z,3.98
2017-12-12T12:19:47.798Z,3.96
2017-12-12T12:22:21.686Z,3.97
2017-12-12T12:24:57.466Z,3.91
2017-12-12T12:27:31.423Z,4.01
2017-12-12T12:30:04.110Z,3.98
2017-12-12T12:32:36.443Z,3.97
2017-12-12T12:35:11.572Z,4.00
2017-12-12T12:37:44.257Z,4.00
2017-12-12T12:40:15.767Z,3.98
2017-12-12T12:42:51.444Z,3.95
2017-12-12T12:45:25.596Z,3.93
2017-12-12T12:47:57.238Z,4.05
2017-12-12T12:50:30.208Z,4.03
2017-12-12T12:53:01.709Z,4.01
2017-12-12T12:55:33.601Z,3.98
2017-12-12T12:58:05.213Z,3.98
2017-12-12T13:00:37.324Z,3.97
2017-12-12T13:03:10.970Z,4.06
2017-12-12T13:05:45.440Z,4.06
2017-12-12T13:08:17.696Z,4.08
2017-12-12T13:10:51.551Z,4.05
2017-12-12T13:13:24.459Z,3.99
2017-12-12T13:15:57.883Z,4.04
2017-12-12T13:18:30.078Z,4.02
2017-12-12T13:21:03.950Z,4.01
2017-12-12T13:23:35.936Z,3.99
2017-12-12T13:26:10.542Z,3.98
2017-12-12T13:28:42.624Z,3.98
2017-12-12T13:31:14.796Z,3.96
2017-12-12T13:33:46.606Z,3.95
2017-12-12T13:36:19.900Z,4.01
2017-12-12T13:38:53.811Z,4.08
2017-12-12T13:41:26.707Z,4.02
2017-12-12T13:43:59.616Z,4.05
2017-12-12T13:46:31.631Z,3.97
2017-12-12T13:49:02.916Z,4.09
2017-12-12T13:51:36.773Z,3.89
2017-12-12T13:54:12.476Z,3.87
2017-12-12T13:56:44.044Z,3.80
2017-12-12T13:59:16.237Z,3.81
2017-12-12T14:01:53.390Z,3.94
2017-12-12T14:04:25.894Z,3.90
2017-12-12T14:06:57.453Z,3.79
2017-12-12T14:09:29.629Z,3.81
2017-12-12T14:12:03.244Z,3.88
2017-12-12T14:14:34.117Z,3.82
2017-12-12T14:17:05.302Z,3.82
2017-12-12T14:19:37.021Z,3.87
2017-12-12T14:22:09.526Z,3.95
2017-12-12T14:24:41.322Z,3.85
2017-12-12T14:27:15.101Z,3.76
2017-12-12T14:29:54.492Z,3.81
2017-12-12T14:32:26.553Z,3.77
2017-12-12T14:35:01.812Z,3.71
2017-12-12T14:37:37.813Z,3.72
2017-12-12T14:40:12.912Z,3.68
2017-12-12T14:42:52.542Z,3.67
2017-12-12T14:45:27.116Z,3.64
2017-12-12T14:48:02.233Z,3.64
2017-12-12T14:50:35.062Z,3.60
2017-12-12T14:53:09.829Z,3.62
2017-12-12T14:55:44.014Z,3.59
2017-12-12T14:58:21.881Z,3.56
2017-12-12T15:00:54.586Z,3.54
2017-12-12T15:03:34.688Z,3.47
2017-12-12T15:06:11.723Z,3.52
2017-12-12T15:08:45.907Z,3.55
2017-12-12T15:11:24.381Z,3.58
2017-12-12T15:13:57.451Z,3.60
2017-12-12T15:16:33.544Z,3.61
2017-12-12T15:19:16.179Z,3.45
2017-12-12T15:21:48.460Z,3.50
2017-12-12T15:24:21.937Z,3.41
2017-12-12T15:26:56.232Z,3.44
2017-12-12T15:29:32.114Z,3.44
2017-12-12T15:32:04.322Z,3.49
2017-12-12T15:34:38.053Z,3.42
2017-12-12T15:37:09.964Z,3.47
2017-12-12T15:39:43.956Z,3.45
2017-12-12T15:42:18.452Z,3.47
2017-12-12T15:44:57.151Z,3.39
2017-12-12T15:47:29.746Z,3.42
2017-12-12T15:50:14.021Z,3.41
2017-12-12T15:52:45.544Z,3.41
2017-12-12T15:55:18.463Z,3.31
2017-12-12T15:57:51.034Z,3.24
2017-12-12T16:00:35.618Z,3.27
2017-12-12T16:03:13.768Z,3.40
2017-12-12T16:05:48.061Z,3.29
2017-12-12T16:08:21.439Z,3.13
2017-12-12T16:10:53.104Z,3.12
2017-12-12T16:13:26.452Z,3.17
2017-12-12T16:15:58.258Z,3.08
2017-12-12T16:18:36.800Z,3.18
2017-12-12T16:21:17.291Z,3.17
2017-12-12T16:23:50.359Z,3.21
2017-12-12T16:26:25.172Z,3.21
2017-12-12T16:28:57.113Z,3.06
2017-12-12T16:31:29.617Z,3.07
2017-12-12T16:34:04.804Z,3.22
2017-12-12T16:36:37.588Z,3.10
2017-12-12T16:39:11.616Z,3.26
2017-12-12T16:41:45.535Z,3.31
2017-12-12T16:44:17.589Z,3.33
2017-12-12T16:49:24.025Z,3.42
2017-12-12T16:51:56.292Z,3.21
2017-12-12T16:54:29.086Z,3.24
2017-12-12T16:57:02.447Z,3.31
2017-12-12T16:59:36.315Z,3.42
2017-12-12T17:02:14.376Z,3.28
2017-12-12T17:04:47.761Z,3.42
2017-12-12T17:07:20.226Z,3.30
2017-12-12T17:09:57.063Z,3.36
2017-12-12T17:12:35.705Z,3.37
2017-12-12T17:15:20.709Z,3.34
2017-12-12T17:20:49.937Z,3.20
2017-12-12T17:23:34.738Z,3.18
2017-12-12T17:26:07.885Z,3.10
2017-12-12T17:28:44.295Z,3.12
2017-12-12T17:31:20.375Z,3.12
2017-12-12T17:33:56.426Z,3.13
2017-12-12T17:36:30.075Z,3.14
2017-12-12T17:39:07.197Z,3.18
2017-12-12T17:41:40.006Z,3.13
2017-12-12T17:46:53.791Z,3.27
2017-12-12T17:49:26.152Z,3.13
2017-12-12T17:51:58.615Z,2.97
2017-12-12T17:54:30.980Z,2.88
2017-12-12T17:57:08.289Z,2.98
2017-12-12T17:59:40.840Z,2.93
2017-12-12T18:02:15.506Z,2.85
2017-12-12T18:05:24.485Z,2.77
2017-12-12T18:08:04.921Z,2.78
2017-12-12T18:10:46.062Z,2.90
2017-12-12T18:13:21.310Z,2.70
2017-12-12T18:15:59.335Z,2.88
2017-12-12T18:18:38.237Z,2.82
2017-12-12T18:21:12.548Z,2.79
2017-12-12T18:23:50.005Z,2.65
2017-12-12T18:26:23.427Z,2.80
2017-12-12T18:28:55.454Z,2.76
2017-12-12T18:31:30.458Z,2.67
2017-12-12T18:34:02.383Z,2.70
2017-12-12T18:36:35.279Z,2.89
2017-12-12T18:39:14.235Z,2.81
2017-12-12T18:41:49.208Z,2.91
2017-12-12T18:44:25.972Z,2.77
2017-12-12T18:47:01.842Z,2.87
2017-12-12T18:49:34.519Z,2.75
2017-12-12T18:52:09.908Z,2.67
2017-12-12T18:54:47.635Z,2.61
2017-12-12T18:57:26.289Z,2.39
2017-12-12T19:00:03.843Z,2.51
2017-12-12T19:02:47.470Z,2.45
2017-12-12T19:05:33.419Z,2.47
2017-12-12T19:08:11.279Z,2.46
2017-12-12T19:10:44.697Z,2.77
2017-12-12T19:13:24.189Z,2.54
2017-12-12T19:16:01.927Z,2.73
2017-12-12T19:18:40.584Z,2.56
2017-12-12T19:21:20.852Z,2.51
2017-12-12T19:23:58.815Z,2.63
2017-12-12T19:26:36.005Z,2.71
2017-12-12T19:29:17.797Z,2.71
2017-12-12T19:32:11.913Z,2.68
2017-12-12T19:34:53.421Z,2.71
2017-12-12T19:37:27.879Z,2.36
2017-12-12T19:40:16.940Z,2.45
2017-12-12T19:42:52.943Z,2.35
2017-12-12T19:45:31.298Z,2.25
2017-12-12T19:48:13.798Z,2.28
2017-12-12T19:50:54.075Z,2.24
2017-12-12T19:53:31.930Z,2.32
2017-12-12T19:56:15.261Z,2.13
2017-12-12T19:58:49.246Z,2.27
2017-12-12T20:01:23.989Z,2.20
2017-12-12T20:04:02.758Z,2.12
2017-12-12T20:06:40.796Z,2.20
2017-12-12T20:09:20.532Z,2.16
2017-12-12T20:11:54.832Z,2.03
2017-12-12T20:14:34.896Z,2.11
2017-12-12T20:17:11.179Z,2.04
2017-12-12T20:19:43.215Z,1.93
2017-12-12T20:22:20.526Z,1.92
2017-12-12T20:24:52.837Z,2.07
2017-12-12T20:27:32.050Z,1.95
2017-12-12T20:30:13.779Z,2.09
2017-12-12T20:32:51.900Z,2.03
2017-12-12T20:35:26.026Z,2.11
2017-12-12T20:38:01.280Z,2.07
2017-12-12T20:40:36.127Z,2.12
2017-12-12T20:43:10.972Z,2.13
2017-12-12T20:45:44.953Z,2.11
2017-12-12T20:48:17.749Z,2.22
2017-12-12T20:50:52.571Z,1.65
2017-12-12T20:53:25.982Z,2.07
2017-12-12T20:56:00.292Z,2.28
2017-12-12T20:58:33.425Z,2.18
2017-12-12T21:01:07.193Z,2.14
2017-12-12T21:03:40.605Z,2.14
2017-12-12T21:06:19.729Z,2.22
2017-12-12T21:08:58.403Z,1.97
2017-12-12T21:11:35.119Z,2.25
2017-12-12T21:14:13.349Z,2.22
2017-12-12T21:16:45.148Z,2.16
2017-12-12T21:19:19.281Z,2.12
2017-12-12T21:21:59.361Z,2.41
2017-12-12T21:27:25.415Z,2.29
2017-12-12T21:30:01.629Z,2.42
2017-12-12T21:33:01.676Z,2.27
2017-12-12T21:41:24.873Z,1.89
2017-12-12T21:44:06.245Z,1.71
2017-12-12T21:46:49.019Z,1.60
2017-12-12T21:52:10.512Z,1.65
2017-12-12T21:54:54.473Z,2.28
2017-12-12T21:57:31.753Z,2.22
2017-12-12T22:00:09.701Z,2.10
2017-12-12T22:02:49.016Z,1.95
2017-12-12T22:05:23.807Z,1.95
2017-12-12T22:07:58.243Z,1.85
2017-12-12T22:10:32.739Z,1.85
2017-12-12T22:13:08.275Z,1.65
2017-12-12T22:15:43.774Z,2.00
2017-12-12T22:18:16.922Z,1.78
2017-12-12T22:20:51.161Z,1.94
2017-12-12T22:23:26.543Z,1.89
2017-12-12T22:26:01.608Z,1.97
2017-12-12T22:28:38.844Z,1.66
2017-12-12T22:31:16.034Z,1.61
2017-12-12T22:33:52.040Z,1.89
2017-12-12T22:36:25.564Z,1.77
2017-12-12T22:38:59.508Z,1.97
2017-12-12T22:41:35.325Z,1.77
2017-12-12T22:44:18.510Z,1.76
2017-12-12T22:47:00.773Z,2.12
2017-12-12T22:49:33.625Z,2.20
2017-12-12T22:52:11.102Z,2.22
2017-12-12T22:54:45.242Z,2.33
2017-12-12T22:57:28.344Z,2.26
2017-12-12T23:00:03.609Z,2.30
2017-12-12T23:02:43.834Z,2.36
2017-12-12T23:05:18.621Z,2.20
2017-12-12T23:08:00.574Z,2.37
2017-12-12T23:10:38.013Z,2.39
2017-12-12T23:13:11.985Z,2.39
2017-12-12T23:15:52.361Z,2.14
2017-12-12T23:18:25.272Z,2.16
2017-12-12T23:20:57.850Z,2.39
2017-12-12T23:23:30.839Z,2.19
2017-12-12T23:26:04.371Z,2.15
2017-12-12T23:28:38.517Z,2.30
2017-12-12T23:31:10.968Z,2.56
2017-12-12T23:33:42.601Z,2.33
2017-12-12T23:36:15.562Z,2.32
2017-12-12T23:38:47.559Z,2.40
2017-12-12T23:41:19.520Z,2.21
2017-12-12T23:43:50.970Z,2.40
2017-12-12T23:46:22.538Z,2.52
2017-12-12T23:48:54.663Z,2.57
2017-12-12T23:51:27.776Z,2.40
2017-12-12T23:54:00.061Z,2.14
2017-12-12T23:56:32.350Z,2.29
2017-12-12T23:59:08.287Z,2.52
